Time;durP1;ratioP1;P1;durP2;ratioP2;P2;SDS_P1;SDS_P2;PMS_P1;PMS_P2;Temp;Humidity;BMP_temperature;BMP_pressure;BME280_temperature;BME280_humidity;BME280_pressure;Samples;Min_cycle;Max_cycle;Signal;HPM_P1;HPM_P2
2021/03/06 00:00:33;;;;;;;6.78;1.80;;;;;;;-1.27;63.67;99759.50;3524930;28;20463;-47
2021/03/06 00:02:15;;;;;;;6.95;1.80;;;;;;;-1.28;63.92;99765.34;3513414;28;20511;-47
2021/03/06 00:03:57;;;;;;;5.88;2.15;;;;;;;-1.31;64.84;99768.59;3513316;28;20103;-47
2021/03/06 00:05:43;;;;;;;6.03;2.17;;;;;;;-1.33;64.67;99767.63;3511337;28;20522;-47
2021/03/06 00:07:24;;;;;;;4.15;2.10;;;;;;;-1.36;64.55;99759.81;3516136;28;20044;-48
2021/03/06 00:09:07;;;;;;;5.93;2.10;;;;;;;-1.40;64.43;99762.06;3525634;28;20051;-48
2021/03/06 00:10:48;;;;;;;5.13;1.90;;;;;;;-1.43;64.81;99770.38;3520562;28;20055;-46
2021/03/06 00:12:32;;;;;;;5.38;1.77;;;;;;;-1.44;64.79;99773.69;3524699;28;20050;-48
2021/03/06 00:14:13;;;;;;;4.93;2.08;;;;;;;-1.47;65.28;99768.44;3521894;28;20055;-47
2021/03/06 00:15:55;;;;;;;4.50;1.80;;;;;;;-1.49;64.81;99775.97;3521076;28;20078;-47
2021/03/06 00:17:37;;;;;;;4.00;1.75;;;;;;;-1.50;65.16;99780.97;3525065;28;20051;-48
2021/03/06 00:19:19;;;;;;;7.70;2.17;;;;;;;-1.52;65.44;99774.91;3520268;28;20050;-47
2021/03/06 00:21:00;;;;;;;3.80;1.70;;;;;;;-1.56;65.45;99775.47;3525298;28;20048;-49
2021/03/06 00:23:00;;;;;;;3.35;1.70;;;;;;;-1.60;65.01;99776.94;3521811;28;20055;-48
2021/03/06 00:24:41;;;;;;;5.07;1.88;;;;;;;-1.62;65.73;99778.50;3521953;28;20055;-48
2021/03/06 00:26:23;;;;;;;5.25;2.05;;;;;;;-1.67;65.46;99770.56;3511562;28;20062;-47
2021/03/06 00:28:06;;;;;;;3.92;1.70;;;;;;;-1.69;66.13;99773.81;3516437;28;20048;-48
2021/03/06 00:29:48;;;;;;;5.43;1.97;;;;;;;-1.73;65.63;99772.75;3525432;28;20048;-47
2021/03/06 00:31:29;;;;;;;3.08;1.73;;;;;;;-1.76;65.29;99775.09;3520134;28;20073;-47
2021/03/06 00:33:11;;;;;;;3.60;1.80;;;;;;;-1.79;65.30;99776.56;3524581;28;20464;-48
2021/03/06 00:34:53;;;;;;;2.90;1.55;;;;;;;-1.82;65.57;99776.34;3521783;28;20500;-47
2021/03/06 00:36:35;;;;;;;3.15;1.90;;;;;;;-1.84;65.55;99783.00;3523110;28;20085;-47
2021/03/06 00:38:16;;;;;;;6.82;2.10;;;;;;;-1.88;64.65;99777.75;3523995;28;20056;-48
2021/03/06 00:39:58;;;;;;;4.88;1.90;;;;;;;-1.90;64.45;99774.19;3519869;28;20048;-48
2021/03/06 00:41:39;;;;;;;4.38;1.65;;;;;;;-1.91;63.99;99774.09;3524985;28;20100;-49
2021/03/06 00:43:22;;;;;;;3.75;1.52;;;;;;;-1.92;64.05;99775.75;3513938;28;20101;-47
2021/03/06 00:45:05;;;;;;;4.35;1.92;;;;;;;-1.92;64.46;99777.44;3512435;28;20044;-47
2021/03/06 00:46:46;;;;;;;2.95;1.63;;;;;;;-1.95;64.35;99773.00;3523656;28;20059;-48
2021/03/06 00:48:28;;;;;;;4.47;1.73;;;;;;;-1.98;63.75;99770.28;3520719;28;20059;-47
2021/03/06 00:50:13;;;;;;;3.28;1.38;;;;;;;-1.99;63.77;99777.81;3511076;28;20048;-47
2021/03/06 00:51:55;;;;;;;6.00;2.50;;;;;;;-2.01;64.21;99772.63;3519036;28;20039;-48
2021/03/06 00:53:37;;;;;;;3.28;1.75;;;;;;;-2.02;64.30;99781.03;3524657;28;20043;-47
2021/03/06 00:55:19;;;;;;;4.60;1.75;;;;;;;-2.05;63.89;99765.59;3521099;28;20075;-48
2021/03/06 00:57:00;;;;;;;4.68;1.70;;;;;;;-2.08;63.86;99776.44;3521336;28;20054;-48
2021/03/06 00:58:43;;;;;;;2.55;1.50;;;;;;;-2.10;63.84;99782.19;3523786;28;20055;-48
2021/03/06 01:00:25;;;;;;;3.30;1.42;;;;;;;-2.13;62.78;99776.91;3520132;28;20116;-49
2021/03/06 01:02:07;;;;;;;3.30;1.70;;;;;;;-2.15;63.19;99781.88;3524827;28;20054;-47
2021/03/06 01:03:48;;;;;;;4.00;1.98;;;;;;;-2.17;62.26;99780.03;3514707;28;20094;-47
2021/03/06 01:05:30;;;;;;;4.90;1.63;;;;;;;-2.19;61.65;99776.50;3510479;28;20043;-48
2021/03/06 01:07:12;;;;;;;3.97;1.58;;;;;;;-2.20;60.73;99784.91;3522056;28;20067;-47
2021/03/06 01:08:53;;;;;;;3.97;1.40;;;;;;;-2.20;61.00;99783.25;3521032;28;20125;-48
2021/03/06 01:10:37;;;;;;;2.53;1.35;;;;;;;-2.21;61.19;99784.03;3523387;28;20507;-48
2021/03/06 01:12:18;;;;;;;2.38;1.27;;;;;;;-2.22;60.71;99776.31;3521344;28;20056;-46
2021/03/06 01:14:01;;;;;;;2.63;1.42;;;;;;;-2.23;61.04;99780.50;3523473;28;20056;-46
2021/03/06 01:15:43;;;;;;;9.32;1.90;;;;;;;-2.24;61.25;99781.28;3521124;28;20044;-46
2021/03/06 01:17:24;;;;;;;5.25;1.80;;;;;;;-2.26;61.53;99777.78;3522646;28;20083;-48
2021/03/06 01:19:06;;;;;;;3.00;1.42;;;;;;;-2.27;61.28;99783.63;3521868;28;20048;-47
2021/03/06 01:20:48;;;;;;;2.42;1.45;;;;;;;-2.29;61.18;99780.97;3522516;28;20063;-47
2021/03/06 01:22:31;;;;;;;2.67;1.60;;;;;;;-2.29;61.88;99787.72;3523502;28;20150;-47
2021/03/06 01:24:12;;;;;;;6.00;2.10;;;;;;;-2.29;61.83;99790.28;3521072;28;20055;-47
2021/03/06 01:25:55;;;;;;;3.58;1.60;;;;;;;-2.30;61.55;99783.41;3524442;28;20511;-48
2021/03/06 01:27:36;;;;;;;3.60;1.60;;;;;;;-2.33;61.42;99788.31;3521282;28;20496;-56
2021/03/06 01:29:18;;;;;;;3.53;1.35;;;;;;;-2.34;61.98;99791.63;3523783;28;20496;-57
2021/03/06 01:31:00;;;;;;;3.28;1.35;;;;;;;-2.36;62.35;99793.19;3521573;28;20048;-57
2021/03/06 01:32:43;;;;;;;5.72;1.52;;;;;;;-2.38;62.75;99792.19;3522229;28;20423;-57
2021/03/06 01:34:25;;;;;;;4.35;1.45;;;;;;;-2.39;62.62;99785.34;3510385;28;20547;-57
2021/03/06 01:36:07;;;;;;;4.88;1.98;;;;;;;-2.41;62.35;99792.88;3516003;28;20052;-56
2021/03/06 01:37:50;;;;;;;3.28;1.50;;;;;;;-2.43;62.95;99797.84;3524375;28;20427;-57
2021/03/06 01:39:32;;;;;;;3.38;1.50;;;;;;;-2.45;63.64;99794.31;3518428;28;20492;-57
2021/03/06 01:41:14;;;;;;;3.75;1.50;;;;;;;-2.47;63.79;99795.00;3522128;28;20412;-57
2021/03/06 01:42:56;;;;;;;5.22;1.55;;;;;;;-2.49;63.88;99797.44;3521660;28;20075;-57
2021/03/06 01:44:38;;;;;;;2.75;1.58;;;;;;;-2.51;64.17;99800.63;3522068;28;20043;-57
2021/03/06 01:46:20;;;;;;;4.93;1.58;;;;;;;-2.52;64.04;99809.06;3523456;28;20044;-57
2021/03/06 01:48:02;;;;;;;3.72;1.75;;;;;;;-2.54;63.71;99806.41;3520044;28;20044;-57
2021/03/06 01:49:44;;;;;;;2.38;1.60;;;;;;;-2.56;63.58;99807.97;3524384;28;20077;-57
2021/03/06 01:51:26;;;;;;;2.90;1.38;;;;;;;-2.57;63.64;99813.81;3513006;28;20051;-57
2021/03/06 01:53:10;;;;;;;4.80;1.67;;;;;;;-2.57;63.22;99807.84;3511042;28;20056;-57
2021/03/06 01:54:54;;;;;;;5.13;1.80;;;;;;;-2.58;63.10;99816.25;3521982;28;20055;-57
2021/03/06 01:56:35;;;;;;;4.20;1.73;;;;;;;-2.61;63.55;99811.84;3521039;28;20090;-57
2021/03/06 01:58:17;;;;;;;5.75;1.98;;;;;;;-2.63;62.75;99816.81;3510243;28;20532;-58
2021/03/06 01:59:59;;;;;;;4.13;1.60;;;;;;;-2.63;62.46;99821.91;3517288;28;20040;-57
2021/03/06 02:01:41;;;;;;;5.50;1.92;;;;;;;-2.64;62.80;99814.16;3524158;28;20474;-56
2021/03/06 02:03:23;;;;;;;4.38;1.73;;;;;;;-2.67;62.32;99824.09;3518802;28;20050;-57
2021/03/06 02:05:05;;;;;;;3.30;1.50;;;;;;;-2.71;61.43;99827.22;3521947;28;20044;-57
2021/03/06 02:06:47;;;;;;;4.10;1.85;;;;;;;-2.72;62.06;99825.47;3510965;28;20052;-57
2021/03/06 02:08:29;;;;;;;2.83;1.38;;;;;;;-2.78;62.17;99828.47;3512163;28;20509;-57
2021/03/06 02:10:12;;;;;;;3.92;1.63;;;;;;;-2.82;61.67;99834.09;3509999;28;20459;-57
2021/03/06 02:12:02;;;;;;;2.85;1.55;;;;;;;-2.85;61.91;99832.25;3517350;28;20052;-57
2021/03/06 02:13:58;;;;;;;2.50;1.42;;;;;;;-2.86;61.61;99835.56;3522335;28;20070;-57
2021/03/06 02:15:52;;;;;;;5.70;1.67;;;;;;;-2.90;60.22;99837.75;3521473;28;20047;-57
2021/03/06 02:17:38;;;;;;;;;;;;;;;-2.91;59.82;99833.47;3521216;28;20059;-57
2021/03/06 02:19:54;;;;;;;4.38;1.98;;;;;;;-2.92;60.40;99840.19;3524069;28;19927;-57
2021/03/06 02:21:48;;;;;;;3.97;1.50;;;;;;;-2.95;60.36;99849.25;3521509;28;20044;-57
2021/03/06 02:24:01;;;;;;;3.65;1.70;;;;;;;-2.98;59.82;99849.06;3520547;28;20101;-57
2021/03/06 02:26:02;;;;;;;3.80;1.50;;;;;;;-3.01;60.16;99853.16;3523530;28;20053;-57
2021/03/06 02:27:56;;;;;;;6.18;1.90;;;;;;;-3.04;59.55;99855.47;3522126;28;20062;-57
2021/03/06 02:29:43;;;;;;;3.47;1.92;;;;;;;-3.06;59.71;99856.13;3519307;28;20051;-57
2021/03/06 02:31:28;;;;;;;4.22;1.70;;;;;;;-3.10;59.00;99856.69;3523323;28;20424;-57
2021/03/06 02:33:12;;;;;;;3.72;1.63;;;;;;;-3.14;59.79;99858.13;3520446;28;20180;-57
2021/03/06 02:35:07;;;;;;;2.83;1.40;;;;;;;-3.18;60.04;99866.28;3520266;28;20569;-57
2021/03/06 02:37:00;;;;;;;3.85;1.65;;;;;;;-3.21;59.97;99866.06;3509741;28;20052;-56
2021/03/06 02:38:45;;;;;;;4.78;2.10;;;;;;;-3.25;60.06;99862.44;3516783;28;20051;-57
2021/03/06 02:40:29;;;;;;;4.00;1.33;;;;;;;-3.28;60.75;99862.22;3523232;28;20534;-57
2021/03/06 02:42:16;;;;;;;4.93;1.65;;;;;;;-3.29;60.79;99862.09;3520655;28;20051;-56
2021/03/06 02:43:58;;;;;;;6.20;1.88;;;;;;;-3.32;60.95;99867.84;3519218;28;20074;-57
2021/03/06 02:45:41;;;;;;;5.53;1.70;;;;;;;-3.34;60.79;99868.50;3509816;28;20052;-57
2021/03/06 02:47:23;;;;;;;3.73;1.93;;;;;;;-3.37;60.91;99876.78;3516188;28;20054;-57
2021/03/06 02:49:05;;;;;;;4.07;1.60;;;;;;;-3.39;59.95;99876.66;3523915;28;20055;-57
2021/03/06 02:50:52;;;;;;;4.32;2.03;;;;;;;-3.41;59.99;99879.88;3520055;28;20047;-56
2021/03/06 02:52:35;;;;;;;4.68;2.20;;;;;;;-3.44;59.92;99885.59;3521451;28;20085;-57
2021/03/06 02:54:16;;;;;;;5.15;2.03;;;;;;;-3.46;60.32;99884.59;3521576;28;20074;-49
2021/03/06 02:55:58;;;;;;;5.18;1.83;;;;;;;-3.48;60.49;99891.22;3518810;28;20051;-47
2021/03/06 02:57:52;;;;;;;6.18;2.55;;;;;;;-3.51;60.37;99888.44;3523759;28;20043;-48
2021/03/06 02:59:48;;;;;;;4.97;1.95;;;;;;;-3.55;60.24;99894.09;3514968;28;20056;-49
2021/03/06 03:01:46;;;;;;;4.72;2.05;;;;;;;-3.58;60.36;99891.31;3510955;28;20101;-48
2021/03/06 03:03:49;;;;;;;4.88;2.20;;;;;;;-3.59;60.22;99895.50;3510162;28;20066;-48
2021/03/06 03:05:39;;;;;;;4.43;1.80;;;;;;;-3.61;59.21;99898.69;3521680;28;20051;-57
2021/03/06 03:07:24;;;;;;;6.45;2.67;;;;;;;-3.64;59.77;99898.47;3523696;28;20047;-57
2021/03/06 03:09:11;;;;;;;6.78;2.40;;;;;;;-3.67;58.92;99901.66;3522468;28;20436;-57
2021/03/06 03:10:56;;;;;;;4.07;1.65;;;;;;;-3.69;58.48;99898.13;3521548;28;20051;-57
2021/03/06 03:12:44;;;;;;;5.10;2.20;;;;;;;-3.68;58.48;99897.34;3511983;28;20432;-57
2021/03/06 03:14:32;;;;;;;4.22;1.88;;;;;;;-3.69;58.97;99899.81;3519803;28;20436;-57
2021/03/06 03:16:17;;;;;;;3.92;1.85;;;;;;;-3.70;58.57;99900.56;3525080;28;20047;-57
2021/03/06 03:18:02;;;;;;;5.88;1.73;;;;;;;-3.70;58.70;99903.09;3513635;28;20504;-57
2021/03/06 03:19:50;;;;;;;6.82;2.03;;;;;;;-3.72;59.13;99907.16;3515320;28;20109;-57
2021/03/06 03:21:40;;;;;;;3.83;1.73;;;;;;;-3.74;59.10;99907.06;3511893;28;20501;-57
2021/03/06 03:23:27;;;;;;;4.32;2.10;;;;;;;-3.76;58.33;99906.06;3520602;28;20047;-57
2021/03/06 03:25:19;;;;;;;3.45;1.85;;;;;;;-3.79;58.58;99906.72;3524208;28;20044;-57
2021/03/06 03:27:02;;;;;;;4.60;1.90;;;;;;;-3.81;58.44;99912.44;3524287;28;20479;-57
2021/03/06 03:28:47;;;;;;;3.03;1.67;;;;;;;-3.84;58.97;99913.06;3520950;28;20296;-57
2021/03/06 03:30:29;;;;;;;3.90;1.88;;;;;;;-3.86;59.13;99911.22;3525819;28;20063;-57
2021/03/06 03:32:12;;;;;;;4.18;1.50;;;;;;;-3.88;59.07;99916.16;3520727;28;20048;-57
2021/03/06 03:33:56;;;;;;;4.25;1.70;;;;;;;-3.88;59.40;99916.16;3525091;28;20572;-57
2021/03/06 03:35:39;;;;;;;5.30;2.55;;;;;;;-3.87;59.95;99922.09;3523029;28;20124;-57
2021/03/06 03:37:21;;;;;;;5.43;1.83;;;;;;;-3.89;59.82;99924.53;3522106;28;20055;-57
2021/03/06 03:39:03;;;;;;;3.78;1.58;;;;;;;-3.92;60.14;99919.25;3524821;28;20684;-57
2021/03/06 03:40:46;;;;;;;4.18;1.70;;;;;;;-3.93;59.86;99924.19;3518002;28;20055;-57
2021/03/06 03:42:28;;;;;;;3.72;2.10;;;;;;;-3.96;59.98;99918.13;3511610;28;20048;-57
2021/03/06 03:44:10;;;;;;;5.05;1.90;;;;;;;-3.99;60.36;99920.44;3521302;28;20048;-57
2021/03/06 03:45:52;;;;;;;5.82;1.90;;;;;;;-4.00;60.33;99925.38;3523339;28;20055;-57
2021/03/06 03:47:38;;;;;;;5.15;2.10;;;;;;;-4.02;59.92;99929.47;3523274;28;20112;-57
2021/03/06 03:49:22;;;;;;;3.08;1.70;;;;;;;-4.05;60.42;99927.56;3521134;28;20109;-47
2021/03/06 03:51:04;;;;;;;5.28;2.20;;;;;;;-4.06;60.05;99924.94;3511580;28;20055;-49
2021/03/06 03:52:48;;;;;;;6.22;2.42;;;;;;;-4.07;60.41;99934.16;3519003;28;20050;-47
2021/03/06 03:54:30;;;;;;;5.82;2.25;;;;;;;-4.10;60.11;99933.06;3525318;28;20058;-49
2021/03/06 03:56:12;;;;;;;2.92;1.60;;;;;;;-4.12;61.47;99939.66;3522357;28;20047;-48
2021/03/06 03:57:55;;;;;;;4.22;2.13;;;;;;;-4.16;61.37;99933.47;3522787;28;20063;-47
2021/03/06 03:59:36;;;;;;;5.90;2.17;;;;;;;-4.18;61.48;99932.47;3512613;28;20180;-47
2021/03/06 04:01:18;;;;;;;8.23;2.15;;;;;;;-4.21;60.75;99934.78;3515753;28;20276;-47
2021/03/06 04:03:03;;;;;;;3.45;1.90;;;;;;;-4.21;61.15;99934.78;3525392;28;20083;-47
2021/03/06 04:04:45;;;;;;;5.55;2.30;;;;;;;-4.22;61.02;99938.09;3520804;28;20138;-47
2021/03/06 04:06:27;;;;;;;7.85;2.42;;;;;;;-4.23;61.02;99932.13;3523603;28;20477;-46
2021/03/06 04:08:09;;;;;;;3.90;1.90;;;;;;;-4.24;61.21;99935.44;3521310;28;20105;-47
2021/03/06 04:09:50;;;;;;;5.15;1.80;;;;;;;-4.24;61.33;99942.13;3523229;28;20052;-47
2021/03/06 04:11:32;;;;;;;4.05;2.10;;;;;;;-4.25;61.11;99941.25;3512418;28;20128;-47
2021/03/06 04:13:13;;;;;;;4.63;2.20;;;;;;;-4.26;61.43;99943.66;3514252;28;20040;-49
2021/03/06 04:14:55;;;;;;;6.60;2.58;;;;;;;-4.28;61.31;99943.53;3524601;28;20108;-46
2021/03/06 04:16:37;;;;;;;8.65;2.70;;;;;;;-4.30;61.46;99940.03;3515283;28;20056;-46
2021/03/06 04:18:18;;;;;;;5.55;2.83;;;;;;;-4.31;61.29;99948.41;3511930;28;20048;-48
2021/03/06 04:20:03;;;;;;;5.07;2.45;;;;;;;-4.34;61.82;99941.44;3522303;28;20101;-47
2021/03/06 04:21:45;;;;;;;5.15;2.20;;;;;;;-4.36;61.84;99942.97;3521547;28;20079;-47
2021/03/06 04:23:26;;;;;;;7.10;2.42;;;;;;;-4.39;61.80;99939.31;3523845;28;20047;-50
2021/03/06 04:25:09;;;;;;;4.22;2.10;;;;;;;-4.39;61.97;99947.78;3521705;28;20044;-47
2021/03/06 04:26:51;;;;;;;6.13;2.40;;;;;;;-4.41;62.13;99945.94;3525119;28;20081;-47
2021/03/06 04:28:33;;;;;;;5.80;2.42;;;;;;;-4.42;62.22;99950.09;3521829;28;20569;-47
2021/03/06 04:30:16;;;;;;;6.43;2.35;;;;;;;-4.41;62.36;99953.53;3524473;28;20571;-48
2021/03/06 04:31:57;;;;;;;4.93;2.27;;;;;;;-4.42;62.32;99951.75;3522080;28;20495;-47
2021/03/06 04:33:39;;;;;;;5.72;2.00;;;;;;;-4.44;62.64;99953.28;3522943;28;20280;-48
2021/03/06 04:35:22;;;;;;;6.15;2.33;;;;;;;-4.44;63.07;99950.75;3523776;28;20485;-47
2021/03/06 04:37:03;;;;;;;5.68;1.92;;;;;;;-4.45;63.08;99952.41;3521408;28;20091;-47
2021/03/06 04:38:45;;;;;;;3.50;1.67;;;;;;;-4.44;63.38;99960.88;3524971;28;20415;-48
2021/03/06 04:40:27;;;;;;;4.13;2.22;;;;;;;-4.44;63.06;99954.16;3520189;28;20142;-46
2021/03/06 04:42:09;;;;;;;5.80;1.80;;;;;;;-4.43;63.63;99955.94;3522945;28;20078;-47
2021/03/06 04:43:51;;;;;;;6.15;2.53;;;;;;;-4.43;63.44;99958.47;3513053;28;20058;-47
2021/03/06 04:45:32;;;;;;;10.07;2.90;;;;;;;-4.43;63.67;99957.59;3512915;28;20412;-47
2021/03/06 04:47:14;;;;;;;8.93;3.58;;;;;;;-4.45;63.79;99962.53;3523493;28;20527;-47
2021/03/06 04:48:55;;;;;;;13.98;4.15;;;;;;;-4.46;63.98;99963.28;3519106;28;20085;-49
2021/03/06 04:50:38;;;;;;;11.65;4.80;;;;;;;-4.46;63.74;99957.34;3511227;28;20059;-46
2021/03/06 04:52:20;;;;;;;10.80;4.30;;;;;;;-4.44;64.12;99964.28;3520028;28;20051;-47
2021/03/06 04:54:02;;;;;;;10.98;4.00;;;;;;;-4.42;63.76;99964.41;3523035;28;20047;-47
2021/03/06 04:55:43;;;;;;;6.25;3.28;;;;;;;-4.39;63.73;99969.72;3521967;28;20052;-46
2021/03/06 04:57:26;;;;;;;7.10;2.88;;;;;;;-4.37;63.44;99960.56;3521361;28;20111;-47
2021/03/06 04:59:08;;;;;;;10.45;3.60;;;;;;;-4.35;63.45;99965.00;3511663;28;20420;-47
2021/03/06 05:00:49;;;;;;;10.70;4.00;;;;;;;-4.31;63.83;99962.69;3516639;28;20051;-47
2021/03/06 05:02:32;;;;;;;8.88;3.65;;;;;;;-4.27;63.46;99969.78;3525001;28;20051;-47
2021/03/06 05:04:15;;;;;;;7.40;3.13;;;;;;;-4.22;63.36;99966.81;3521685;28;20055;-48
2021/03/06 05:06:01;;;;;;;9.50;3.47;;;;;;;-4.15;63.06;99965.66;3522035;28;20051;-48
2021/03/06 05:07:43;;;;;;;10.38;4.28;;;;;;;-4.08;62.99;99972.03;3512374;28;20047;-49
2021/03/06 05:09:25;;;;;;;12.88;3.80;;;;;;;-4.01;62.68;99980.25;3514597;28;20080;-47
2021/03/06 05:11:07;;;;;;;10.85;3.70;;;;;;;-3.92;62.68;99982.59;3510539;28;20428;-47
2021/03/06 05:12:49;;;;;;;10.90;3.55;;;;;;;-3.85;62.66;99977.22;3517430;28;20462;-46
2021/03/06 05:14:34;;;;;;;8.95;3.22;;;;;;;-3.74;62.15;99983.09;3522699;28;20512;-47
2021/03/06 05:16:16;;;;;;;7.50;3.17;;;;;;;-3.65;61.67;99985.44;3521457;28;20046;-47
2021/03/06 05:17:59;;;;;;;8.13;3.10;;;;;;;-3.55;61.55;99995.50;3522053;28;20048;-49
2021/03/06 05:19:40;;;;;;;9.27;4.05;;;;;;;-3.47;60.25;99993.53;3522612;28;20136;-46
2021/03/06 05:21:23;;;;;;;8.23;3.60;;;;;;;-3.40;60.70;99994.09;3519558;28;20087;-47
2021/03/06 05:23:05;;;;;;;8.32;3.63;;;;;;;-3.30;60.33;99997.31;3524413;28;20550;-47
2021/03/06 05:24:48;;;;;;;9.75;3.78;;;;;;;-3.22;60.39;99994.59;3521067;28;20047;-47
2021/03/06 05:26:44;;;;;;;8.20;3.38;;;;;;;-3.12;59.90;100002.84;3523361;28;20568;-47
2021/03/06 05:28:26;;;;;;;7.47;3.30;;;;;;;-3.04;59.19;100001.75;3521929;28;20073;-47
2021/03/06 05:30:09;;;;;;;8.10;3.25;;;;;;;-2.96;58.34;100007.38;3520224;28;20419;-47
2021/03/06 05:31:51;;;;;;;9.20;3.80;;;;;;;-2.89;58.10;100004.53;3510307;28;20056;-47
2021/03/06 05:33:32;;;;;;;9.73;3.25;;;;;;;-2.82;57.93;100009.25;3519129;28;20294;-47
2021/03/06 05:35:14;;;;;;;7.70;3.15;;;;;;;-2.76;57.03;100013.88;3524338;28;20058;-48
2021/03/06 05:36:56;;;;;;;8.90;3.42;;;;;;;-2.71;57.62;100008.38;3520768;28;20561;-49
2021/03/06 05:38:38;;;;;;;9.20;3.67;;;;;;;-2.63;57.30;100016.56;3523642;28;20040;-46
2021/03/06 05:40:20;;;;;;;8.77;4.40;;;;;;;-2.56;56.71;100022.97;3511577;28;20128;-47
2021/03/06 05:42:04;;;;;;;11.90;4.60;;;;;;;-2.49;56.91;100023.50;3512405;28;20109;-47
2021/03/06 05:43:45;;;;;;;;;;;;;;;-2.38;57.09;100024.25;3510742;28;20044;-47
2021/03/06 05:45:27;;;;;;;9.65;3.20;;;;;;;-2.27;57.45;100027.53;3515960;28;19961;-48
2021/03/06 05:47:09;;;;;;;5.50;2.97;;;;;;;-2.19;56.81;100028.06;3524227;28;20043;-46
2021/03/06 05:48:53;;;;;;;7.18;2.88;;;;;;;-2.15;54.02;100024.97;3520795;28;20055;-47
2021/03/06 05:50:34;;;;;;;5.88;2.67;;;;;;;-2.08;55.52;100029.72;3521971;28;20527;-47
2021/03/06 05:52:19;;;;;;;7.78;3.35;;;;;;;-1.99;55.33;100026.91;3512112;28;20082;-47
2021/03/06 05:54:06;;;;;;;9.90;3.47;;;;;;;-1.87;55.08;100032.84;3513069;28;20044;-47
2021/03/06 05:55:52;;;;;;;6.80;3.13;;;;;;;-1.76;54.92;100033.59;3524243;28;20047;-47
2021/03/06 05:57:34;;;;;;;9.60;3.08;;;;;;;-1.67;54.23;100036.75;3519555;28;20051;-46
2021/03/06 05:59:17;;;;;;;6.57;2.90;;;;;;;-1.57;53.22;100043.34;3523472;28;20601;-47
2021/03/06 06:01:01;;;;;;;7.38;3.10;;;;;;;-1.48;52.84;100039.75;3521408;28;20054;-47
2021/03/06 06:02:44;;;;;;;6.05;2.90;;;;;;;-1.35;54.16;100055.84;3522064;28;20044;-48
2021/03/06 06:04:28;;;;;;;7.82;3.80;;;;;;;-1.27;52.05;100048.75;3523417;28;20049;-47
2021/03/06 06:06:10;;;;;;;11.90;3.45;;;;;;;-1.19;51.93;100052.66;3520412;28;20051;-48
2021/03/06 06:07:54;;;;;;;6.80;2.80;;;;;;;-1.13;53.24;100059.03;3524169;28;20070;-47
2021/03/06 06:09:36;;;;;;;6.63;3.13;;;;;;;-1.04;53.06;100057.91;3520836;28;20047;-47
2021/03/06 06:11:17;;;;;;;11.57;3.53;;;;;;;-0.95;51.60;100059.38;3521617;28;20051;-47
2021/03/06 06:12:59;;;;;;;7.55;2.95;;;;;;;-0.88;50.98;100059.78;3519989;28;20055;-47
2021/03/06 06:14:41;;;;;;;11.38;3.95;;;;;;;-0.89;50.14;100066.50;3521189;28;20043;-48
2021/03/06 06:16:23;;;;;;;11.13;3.22;;;;;;;-0.89;50.31;100061.44;3524171;28;20116;-49
2021/03/06 06:18:06;;;;;;;8.10;2.83;;;;;;;-0.87;49.96;100066.63;3519033;28;20071;-46
2021/03/06 06:19:47;;;;;;;6.32;2.70;;;;;;;-0.83;51.58;100071.16;3523915;28;20401;-49
2021/03/06 06:21:37;;;;;;;6.22;2.40;;;;;;;-0.78;49.80;100069.78;3519672;28;20051;-46
2021/03/06 06:23:19;;;;;;;7.97;2.65;;;;;;;-0.69;50.11;100064.38;3520659;28;20501;-48
2021/03/06 06:25:01;;;;;;;8.85;2.70;;;;;;;-0.62;49.79;100071.66;3522780;28;20052;-47
2021/03/06 06:26:53;;;;;;;7.78;2.63;;;;;;;-0.53;49.50;100070.56;3520419;28;20043;-48
2021/03/06 06:28:47;;;;;;;5.45;2.65;;;;;;;-0.46;50.04;100081.19;3523880;28;20080;-47
2021/03/06 06:30:29;;;;;;;4.85;2.40;;;;;;;-0.40;49.61;100076.44;3521119;28;20420;-58
2021/03/06 06:32:12;;;;;;;8.50;2.30;;;;;;;-0.30;48.78;100083.91;3521048;28;20098;-58
2021/03/06 06:33:55;;;;;;;5.82;2.70;;;;;;;-0.18;48.47;100081.25;3522344;28;20059;-58
2021/03/06 06:35:41;;;;;;;4.63;2.40;;;;;;;-0.11;48.41;100080.84;3518942;28;20071;-58
2021/03/06 06:37:23;;;;;;;4.95;2.42;;;;;;;-0.07;47.28;100082.81;3523786;28;20519;-58
2021/03/06 06:39:06;;;;;;;2.83;1.80;;;;;;;-0.01;47.45;100087.41;3520474;28;20120;-58
2021/03/06 06:40:55;;;;;;;4.78;2.10;;;;;;;0.07;46.93;100091.31;3524524;28;20532;-57
2021/03/06 06:42:36;;;;;;;4.68;2.03;;;;;;;0.15;47.85;100089.22;3523190;28;20112;-57
2021/03/06 06:44:18;;;;;;;5.43;2.45;;;;;;;0.25;48.74;100090.69;3523552;28;20100;-58
2021/03/06 06:46:00;;;;;;;6.50;2.60;;;;;;;0.36;48.34;100092.22;3525723;28;20051;-57
2021/03/06 06:47:44;;;;;;;5.82;2.45;;;;;;;0.40;47.13;100097.63;3522830;28;20108;-58
2021/03/06 06:49:26;;;;;;;;;;;;;;;0.48;46.91;100086.97;3526858;28;20054;-58
2021/03/06 06:51:09;;;;;;;5.00;2.42;;;;;;;0.56;46.65;100096.88;3515782;28;19967;-58
2021/03/06 06:52:51;;;;;;;4.25;2.22;;;;;;;0.54;45.16;100088.25;3514763;28;20048;-58
2021/03/06 06:54:36;;;;;;;3.80;1.80;;;;;;;0.37;45.50;100091.44;3524031;28;20055;-57
2021/03/06 06:56:24;;;;;;;5.57;2.20;;;;;;;0.21;45.26;100087.06;3522511;28;20040;-58
2021/03/06 06:58:06;;;;;;;4.57;2.05;;;;;;;0.27;47.44;100089.97;3526161;28;20420;-58
2021/03/06 06:59:56;;;;;;;6.15;2.50;;;;;;;0.39;45.83;100089.84;3521390;28;20070;-57
2021/03/06 07:01:38;;;;;;;5.50;2.30;;;;;;;0.48;47.98;100089.53;3524150;28;20097;-57
2021/03/06 07:03:21;;;;;;;4.88;2.38;;;;;;;0.49;45.54;100096.38;3523640;28;20504;-58
2021/03/06 07:05:05;;;;;;;5.38;2.38;;;;;;;0.54;47.32;100103.56;3522217;28;20047;-58
2021/03/06 07:06:57;;;;;;;3.83;2.13;;;;;;;0.62;46.33;100098.91;3511848;28;20491;-58
2021/03/06 07:08:39;;;;;;;5.50;2.60;;;;;;;0.64;43.67;100099.88;3520234;28;20055;-58
2021/03/06 07:10:22;;;;;;;3.88;2.10;;;;;;;0.78;45.71;100098.16;3525073;28;20054;-58
2021/03/06 07:12:15;;;;;;;10.05;3.08;;;;;;;0.96;45.93;100098.34;3522813;28;20112;-58
2021/03/06 07:13:57;;;;;;;6.78;2.55;;;;;;;1.11;42.84;100099.25;3520573;28;20043;-57
2021/03/06 07:15:40;;;;;;;4.30;2.25;;;;;;;1.22;42.86;100099.88;3525266;28;20044;-57
2021/03/06 07:17:23;;;;;;;5.03;2.50;;;;;;;1.40;44.35;100100.03;3519694;28;20059;-57
2021/03/06 07:19:05;;;;;;;5.13;2.22;;;;;;;1.53;42.75;100086.25;3512120;28;20067;-58
2021/03/06 07:20:48;;;;;;;6.38;2.72;;;;;;;1.59;41.31;100099.41;3520556;28;20512;-58
2021/03/06 07:22:30;;;;;;;4.72;2.67;;;;;;;1.68;44.25;100097.38;3523514;28;20060;-57
2021/03/06 07:24:12;;;;;;;10.98;2.92;;;;;;;1.71;43.75;100091.56;3523369;28;20052;-58
2021/03/06 07:25:56;;;;;;;9.88;2.78;;;;;;;1.84;42.90;100100.78;3522157;28;20079;-58
2021/03/06 07:27:37;;;;;;;5.47;2.05;;;;;;;1.98;43.24;100098.97;3512141;28;20048;-47
2021/03/06 07:29:20;;;;;;;4.90;2.20;;;;;;;2.01;40.45;100094.03;3517505;28;20100;-47
2021/03/06 07:31:04;;;;;;;6.03;1.90;;;;;;;2.01;40.61;100094.91;3525352;28;20051;-48
2021/03/06 07:32:47;;;;;;;4.93;2.20;;;;;;;2.01;41.58;100097.47;3514525;28;20067;-47
2021/03/06 07:34:31;;;;;;;5.00;2.20;;;;;;;2.05;40.35;100098.53;3514463;28;20519;-46
2021/03/06 07:36:12;;;;;;;6.85;2.50;;;;;;;2.03;40.45;100103.56;3524383;28;20512;-46
2021/03/06 07:37:58;;;;;;;4.53;1.83;;;;;;;2.05;40.71;100106.19;3519887;28;20493;-47
2021/03/06 07:39:42;;;;;;;5.10;2.53;;;;;;;2.09;41.66;100111.53;3512054;28;20064;-47
2021/03/06 07:41:27;;;;;;;4.13;1.98;;;;;;;2.19;40.80;100107.81;3513689;28;20075;-49
2021/03/06 07:43:12;;;;;;;4.53;1.70;;;;;;;2.19;38.07;100109.50;3513120;28;20504;-47
2021/03/06 07:44:55;;;;;;;3.97;1.85;;;;;;;2.16;39.48;100111.91;3523190;28;20047;-46
2021/03/06 07:46:38;;;;;;;6.70;2.03;;;;;;;2.23;40.27;100111.44;3521755;28;20046;-47
2021/03/06 07:48:24;;;;;;;3.65;1.63;;;;;;;2.39;39.78;100118.25;3525379;28;20055;-45
2021/03/06 07:50:09;;;;;;;3.90;1.83;;;;;;;2.41;39.35;100106.41;3519383;28;20086;-46
2021/03/06 07:51:52;;;;;;;3.88;1.60;;;;;;;2.55;40.53;100108.00;3524538;28;20409;-46
2021/03/06 07:53:35;;;;;;;6.10;2.00;;;;;;;2.71;38.99;100112.25;3522087;28;20683;-47
2021/03/06 07:55:18;;;;;;;4.83;2.10;;;;;;;2.62;37.36;100104.97;3523950;28;20052;-48
2021/03/06 07:57:01;;;;;;;4.03;1.60;;;;;;;2.36;37.02;100111.31;3523070;28;20768;-47
2021/03/06 07:58:49;;;;;;;4.18;1.83;;;;;;;2.07;37.04;100108.03;3522083;28;20047;-49
2021/03/06 08:00:42;;;;;;;3.40;1.67;;;;;;;1.95;38.88;100104.78;3525731;28;20055;-48
2021/03/06 08:02:38;;;;;;;3.92;1.73;;;;;;;1.92;39.21;100108.09;3521424;28;20386;-49
2021/03/06 08:04:39;;;;;;;3.85;1.60;;;;;;;1.99;39.80;100110.97;3520478;28;20104;-48
2021/03/06 08:06:23;;;;;;;6.57;2.17;;;;;;;2.16;41.79;100112.75;3525638;28;20047;-48
2021/03/06 08:08:04;;;;;;;6.28;2.25;;;;;;;2.40;40.43;100113.22;3515214;28;20051;-46